sensor_id;sensor_type;location;lat;lon;timestamp;temperature;humidity
1351;DHT22;669;50.206;9.998;2023-06-04T00:01:56;11.10;29.80
1351;DHT22;669;50.206;9.998;2023-06-04T00:04:26;11.20;29.20
1351;DHT22;669;50.206;9.998;2023-06-04T00:06:54;11.30;28.40
1351;DHT22;669;50.206;9.998;2023-06-04T00:09:22;11.30;28.50
1351;DHT22;669;50.206;9.998;2023-06-04T00:11:50;11.20;28.80
1351;DHT22;669;50.206;9.998;2023-06-04T00:14:18;11.20;28.30
1351;DHT22;669;50.206;9.998;2023-06-04T00:16:46;11.10;29.30
1351;DHT22;669;50.206;9.998;2023-06-04T00:19:14;11.30;28.20
1351;DHT22;669;50.206;9.998;2023-06-04T00:21:44;11.50;27.90
1351;DHT22;669;50.206;9.998;2023-06-04T00:24:12;11.60;27.40
1351;DHT22;669;50.206;9.998;2023-06-04T00:26:40;11.70;27.30
1351;DHT22;669;50.206;9.998;2023-06-04T00:29:08;11.80;27.10
1351;DHT22;669;50.206;9.998;2023-06-04T00:31:36;11.80;26.90
1351;DHT22;669;50.206;9.998;2023-06-04T00:34:04;11.90;26.80
1351;DHT22;669;50.206;9.998;2023-06-04T00:36:32;11.90;26.80
1351;DHT22;669;50.206;9.998;2023-06-04T00:39:02;11.90;26.60
1351;DHT22;669;50.206;9.998;2023-06-04T00:41:30;11.90;26.70
1351;DHT22;669;50.206;9.998;2023-06-04T00:43:58;11.90;26.60
1351;DHT22;669;50.206;9.998;2023-06-04T00:46:28;12.00;26.40
1351;DHT22;669;50.206;9.998;2023-06-04T00:48:58;12.00;26.70
1351;DHT22;669;50.206;9.998;2023-06-04T00:51:26;11.90;26.70
1351;DHT22;669;50.206;9.998;2023-06-04T00:53:56;11.90;26.40
1351;DHT22;669;50.206;9.998;2023-06-04T00:56:25;11.80;26.60
1351;DHT22;669;50.206;9.998;2023-06-04T00:58:53;11.70;26.50
1351;DHT22;669;50.206;9.998;2023-06-04T01:01:28;11.60;26.60
1351;DHT22;669;50.206;9.998;2023-06-04T01:04:01;11.40;27.10
1351;DHT22;669;50.206;9.998;2023-06-04T01:06:35;11.30;27.00
1351;DHT22;669;50.206;9.998;2023-06-04T01:09:04;11.30;28.30
1351;DHT22;669;50.206;9.998;2023-06-04T01:11:35;11.30;28.20
1351;DHT22;669;50.206;9.998;2023-06-04T01:14:04;11.20;28.30
1351;DHT22;669;50.206;9.998;2023-06-04T01:16:38;11.20;28.50
1351;DHT22;669;50.206;9.998;2023-06-04T01:19:16;11.20;28.60
1351;DHT22;669;50.206;9.998;2023-06-04T01:21:52;11.00;29.10
1351;DHT22;669;50.206;9.998;2023-06-04T01:24:25;10.90;28.80
1351;DHT22;669;50.206;9.998;2023-06-04T01:26:56;10.80;29.40
1351;DHT22;669;50.206;9.998;2023-06-04T01:29:24;10.70;29.50
1351;DHT22;669;50.206;9.998;2023-06-04T01:31:57;10.60;30.70
1351;DHT22;669;50.206;9.998;2023-06-04T01:34:26;10.60;30.40
1351;DHT22;669;50.206;9.998;2023-06-04T01:36:54;10.40;31.00
1351;DHT22;669;50.206;9.998;2023-06-04T01:39:22;10.30;31.50
1351;DHT22;669;50.206;9.998;2023-06-04T01:41:49;10.30;31.70
1351;DHT22;669;50.206;9.998;2023-06-04T01:44:19;10.20;31.70
1351;DHT22;669;50.206;9.998;2023-06-04T01:46:47;10.10;31.70
1351;DHT22;669;50.206;9.998;2023-06-04T01:49:15;10.10;32.60
1351;DHT22;669;50.206;9.998;2023-06-04T01:51:42;10.00;33.10
1351;DHT22;669;50.206;9.998;2023-06-04T01:54:10;9.90;33.60
1351;DHT22;669;50.206;9.998;2023-06-04T01:56:38;9.90;34.00
1351;DHT22;669;50.206;9.998;2023-06-04T01:59:06;9.80;34.10
1351;DHT22;669;50.206;9.998;2023-06-04T02:01:36;9.70;34.30
1351;DHT22;669;50.206;9.998;2023-06-04T02:04:04;9.70;34.40
1351;DHT22;669;50.206;9.998;2023-06-04T02:06:32;9.70;35.80
1351;DHT22;669;50.206;9.998;2023-06-04T02:09:00;9.60;35.00
1351;DHT22;669;50.206;9.998;2023-06-04T02:11:30;9.60;34.20
1351;DHT22;669;50.206;9.998;2023-06-04T02:13:59;9.60;34.10
1351;DHT22;669;50.206;9.998;2023-06-04T02:16:26;9.50;34.60
1351;DHT22;669;50.206;9.998;2023-06-04T02:18:56;9.50;34.50
1351;DHT22;669;50.206;9.998;2023-06-04T02:21:25;9.40;34.90
1351;DHT22;669;50.206;9.998;2023-06-04T02:23:53;9.40;35.30
1351;DHT22;669;50.206;9.998;2023-06-04T02:26:21;9.40;34.80
1351;DHT22;669;50.206;9.998;2023-06-04T02:28:50;9.40;35.40
1351;DHT22;669;50.206;9.998;2023-06-04T02:31:18;9.30;34.90
1351;DHT22;669;50.206;9.998;2023-06-04T02:33:46;9.20;36.60
1351;DHT22;669;50.206;9.998;2023-06-04T02:36:15;9.20;35.80
1351;DHT22;669;50.206;9.998;2023-06-04T02:38:44;9.20;35.90
1351;DHT22;669;50.206;9.998;2023-06-04T02:41:12;9.10;36.10
1351;DHT22;669;50.206;9.998;2023-06-04T02:43:39;9.10;36.60
1351;DHT22;669;50.206;9.998;2023-06-04T02:46:07;9.10;34.90
1351;DHT22;669;50.206;9.998;2023-06-04T02:48:35;9.20;35.40
1351;DHT22;669;50.206;9.998;2023-06-04T02:51:03;9.30;35.70
1351;DHT22;669;50.206;9.998;2023-06-04T02:53:33;9.40;36.40
1351;DHT22;669;50.206;9.998;2023-06-04T02:56:01;9.30;35.00
1351;DHT22;669;50.206;9.998;2023-06-04T02:58:29;9.30;36.40
1351;DHT22;669;50.206;9.998;2023-06-04T03:00:58;9.30;36.60
1351;DHT22;669;50.206;9.998;2023-06-04T03:03:26;9.40;36.40
1351;DHT22;669;50.206;9.998;2023-06-04T03:05:54;9.30;36.20
1351;DHT22;669;50.206;9.998;2023-06-04T03:08:22;9.00;38.00
1351;DHT22;669;50.206;9.998;2023-06-04T03:10:52;8.70;38.40
1351;DHT22;669;50.206;9.998;2023-06-04T03:13:20;8.70;38.90
1351;DHT22;669;50.206;9.998;2023-06-04T03:15:48;8.70;38.60
1351;DHT22;669;50.206;9.998;2023-06-04T03:18:16;8.70;38.00
1351;DHT22;669;50.206;9.998;2023-06-04T03:20:44;8.80;37.40
1351;DHT22;669;50.206;9.998;2023-06-04T03:23:12;8.80;37.40
1351;DHT22;669;50.206;9.998;2023-06-04T03:25:40;8.90;37.60
1351;DHT22;669;50.206;9.998;2023-06-04T03:28:09;8.90;37.60
1351;DHT22;669;50.206;9.998;2023-06-04T03:30:37;9.00;37.40
1351;DHT22;669;50.206;9.998;2023-06-04T03:33:05;9.20;36.80
1351;DHT22;669;50.206;9.998;2023-06-04T03:35:33;9.30;36.80
1351;DHT22;669;50.206;9.998;2023-06-04T03:38:01;9.40;36.40
1351;DHT22;669;50.206;9.998;2023-06-04T03:40:29;9.50;36.00
1351;DHT22;669;50.206;9.998;2023-06-04T03:42:56;9.60;35.20
1351;DHT22;669;50.206;9.998;2023-06-04T03:45:26;9.70;34.50
1351;DHT22;669;50.206;9.998;2023-06-04T03:47:54;9.80;33.60
1351;DHT22;669;50.206;9.998;2023-06-04T03:50:22;9.90;34.10
1351;DHT22;669;50.206;9.998;2023-06-04T03:52:50;9.70;36.20
1351;DHT22;669;50.206;9.998;2023-06-04T03:55:18;9.60;36.90
1351;DHT22;669;50.206;9.998;2023-06-04T03:57:46;9.60;36.80
1351;DHT22;669;50.206;9.998;2023-06-04T04:00:14;9.60;36.60
1351;DHT22;669;50.206;9.998;2023-06-04T04:02:44;9.50;38.10
1351;DHT22;669;50.206;9.998;2023-06-04T04:05:12;9.30;38.60
1351;DHT22;669;50.206;9.998;2023-06-04T04:07:42;9.20;38.00
1351;DHT22;669;50.206;9.998;2023-06-04T04:10:10;9.20;39.40
1351;DHT22;669;50.206;9.998;2023-06-04T04:12:38;9.20;41.30
1351;DHT22;669;50.206;9.998;2023-06-04T04:15:07;9.30;43.00
1351;DHT22;669;50.206;9.998;2023-06-04T04:17:35;9.60;40.00
1351;DHT22;669;50.206;9.998;2023-06-04T04:20:05;9.80;41.20
1351;DHT22;669;50.206;9.998;2023-06-04T04:22:33;9.90;42.00
1351;DHT22;669;50.206;9.998;2023-06-04T04:25:01;10.00;41.90
1351;DHT22;669;50.206;9.998;2023-06-04T04:27:29;10.10;40.20
1351;DHT22;669;50.206;9.998;2023-06-04T04:29:57;10.20;39.10
1351;DHT22;669;50.206;9.998;2023-06-04T04:32:27;10.40;39.10
1351;DHT22;669;50.206;9.998;2023-06-04T04:34:55;10.60;40.40
1351;DHT22;669;50.206;9.998;2023-06-04T04:37:25;10.80;39.90
1351;DHT22;669;50.206;9.998;2023-06-04T04:39:53;11.10;40.60
1351;DHT22;669;50.206;9.998;2023-06-04T04:42:21;11.40;39.80
1351;DHT22;669;50.206;9.998;2023-06-04T04:44:49;11.60;39.40
1351;DHT22;669;50.206;9.998;2023-06-04T04:47:17;11.90;40.10
1351;DHT22;669;50.206;9.998;2023-06-04T04:49:45;12.30;39.70
1351;DHT22;669;50.206;9.998;2023-06-04T04:52:16;12.50;38.20
1351;DHT22;669;50.206;9.998;2023-06-04T04:54:45;12.70;36.00
1351;DHT22;669;50.206;9.998;2023-06-04T04:57:13;13.10;33.30
1351;DHT22;669;50.206;9.998;2023-06-04T04:59:41;13.40;33.40
1351;DHT22;669;50.206;9.998;2023-06-04T05:02:09;13.80;32.10
1351;DHT22;669;50.206;9.998;2023-06-04T05:04:37;14.10;31.80
1351;DHT22;669;50.206;9.998;2023-06-04T05:07:05;14.50;30.80
1351;DHT22;669;50.206;9.998;2023-06-04T05:09:33;14.80;29.90
1351;DHT22;669;50.206;9.998;2023-06-04T05:12:03;15.00;29.60
1351;DHT22;669;50.206;9.998;2023-06-04T05:14:30;15.40;29.50
1351;DHT22;669;50.206;9.998;2023-06-04T05:16:59;15.60;29.20
1351;DHT22;669;50.206;9.998;2023-06-04T05:19:27;15.90;29.20
1351;DHT22;669;50.206;9.998;2023-06-04T05:21:55;16.20;28.40
1351;DHT22;669;50.206;9.998;2023-06-04T05:24:23;16.50;25.20
1351;DHT22;669;50.206;9.998;2023-06-04T05:26:51;16.80;28.00
1351;DHT22;669;50.206;9.998;2023-06-04T05:29:21;17.10;25.70
1351;DHT22;669;50.206;9.998;2023-06-04T05:31:49;17.50;22.10
1351;DHT22;669;50.206;9.998;2023-06-04T05:34:18;17.90;21.30
1351;DHT22;669;50.206;9.998;2023-06-04T05:36:48;18.10;21.50
1351;DHT22;669;50.206;9.998;2023-06-04T05:39:16;18.30;22.70
1351;DHT22;669;50.206;9.998;2023-06-04T05:41:45;18.70;20.50
1351;DHT22;669;50.206;9.998;2023-06-04T05:44:13;18.50;18.80
1351;DHT22;669;50.206;9.998;2023-06-04T05:46:43;18.60;20.80
1351;DHT22;669;50.206;9.998;2023-06-04T05:49:12;18.60;20.80
1351;DHT22;669;50.206;9.998;2023-06-04T05:51:40;18.50;19.40
1351;DHT22;669;50.206;9.998;2023-06-04T05:54:08;18.60;19.80
1351;DHT22;669;50.206;9.998;2023-06-04T05:56:37;18.40;19.50
1351;DHT22;669;50.206;9.998;2023-06-04T05:59:05;18.30;19.00
1351;DHT22;669;50.206;9.998;2023-06-04T06:01:33;18.30;18.90
1351;DHT22;669;50.206;9.998;2023-06-04T06:04:02;18.30;18.70
1351;DHT22;669;50.206;9.998;2023-06-04T06:06:31;18.40;17.60
1351;DHT22;669;50.206;9.998;2023-06-04T06:08:59;18.50;19.40
1351;DHT22;669;50.206;9.998;2023-06-04T06:11:28;18.40;17.40
1351;DHT22;669;50.206;9.998;2023-06-04T06:13:56;18.50;17.80
1351;DHT22;669;50.206;9.998;2023-06-04T06:16:24;18.40;17.50
1351;DHT22;669;50.206;9.998;2023-06-04T06:18:52;18.50;17.80
1351;DHT22;669;50.206;9.998;2023-06-04T06:21:22;18.70;17.90
1351;DHT22;669;50.206;9.998;2023-06-04T06:23:51;18.80;18.60
1351;DHT22;669;50.206;9.998;2023-06-04T06:26:20;19.10;17.90
1351;DHT22;669;50.206;9.998;2023-06-04T06:28:51;19.10;17.10
1351;DHT22;669;50.206;9.998;2023-06-04T06:31:19;19.30;17.50
1351;DHT22;669;50.206;9.998;2023-06-04T06:33:48;19.50;18.40
1351;DHT22;669;50.206;9.998;2023-06-04T06:36:17;19.80;18.30
1351;DHT22;669;50.206;9.998;2023-06-04T06:38:46;19.90;17.00
1351;DHT22;669;50.206;9.998;2023-06-04T06:41:14;20.10;19.80
1351;DHT22;669;50.206;9.998;2023-06-04T06:43:42;20.40;16.90
1351;DHT22;669;50.206;9.998;2023-06-04T06:46:10;20.30;17.40
1351;DHT22;669;50.206;9.998;2023-06-04T06:48:38;20.50;17.70
1351;DHT22;669;50.206;9.998;2023-06-04T06:51:07;20.50;18.00
1351;DHT22;669;50.206;9.998;2023-06-04T06:53:35;20.40;15.50
1351;DHT22;669;50.206;9.998;2023-06-04T06:56:05;20.40;17.90
1351;DHT22;669;50.206;9.998;2023-06-04T06:58:33;20.50;17.10
1351;DHT22;669;50.206;9.998;2023-06-04T07:01:01;20.50;16.40
1351;DHT22;669;50.206;9.998;2023-06-04T07:03:29;20.40;15.00
1351;DHT22;669;50.206;9.998;2023-06-04T07:05:58;20.10;15.80
1351;DHT22;669;50.206;9.998;2023-06-04T07:08:26;20.10;17.20
1351;DHT22;669;50.206;9.998;2023-06-04T07:10:54;20.20;15.10
1351;DHT22;669;50.206;9.998;2023-06-04T07:13:24;20.20;16.40
1351;DHT22;669;50.206;9.998;2023-06-04T07:15:52;20.10;16.70
1351;DHT22;669;50.206;9.998;2023-06-04T07:18:20;20.10;15.40
1351;DHT22;669;50.206;9.998;2023-06-04T07:20:47;20.10;16.80
1351;DHT22;669;50.206;9.998;2023-06-04T07:23:16;20.30;16.50
1351;DHT22;669;50.206;9.998;2023-06-04T07:25:44;20.50;15.40
1351;DHT22;669;50.206;9.998;2023-06-04T07:28:12;20.80;17.00
1351;DHT22;669;50.206;9.998;2023-06-04T07:30:41;20.80;15.00
1351;DHT22;669;50.206;9.998;2023-06-04T07:33:09;20.50;14.80
1351;DHT22;669;50.206;9.998;2023-06-04T07:35:37;20.60;15.70
1351;DHT22;669;50.206;9.998;2023-06-04T07:38:05;20.70;15.90
1351;DHT22;669;50.206;9.998;2023-06-04T07:40:33;20.80;15.00
1351;DHT22;669;50.206;9.998;2023-06-04T07:43:01;21.00;16.50
1351;DHT22;669;50.206;9.998;2023-06-04T07:45:29;21.30;16.90
1351;DHT22;669;50.206;9.998;2023-06-04T07:48:03;21.60;15.50
1351;DHT22;669;50.206;9.998;2023-06-04T07:50:31;21.70;15.90
1351;DHT22;669;50.206;9.998;2023-06-04T07:53:02;21.90;15.80
1351;DHT22;669;50.206;9.998;2023-06-04T07:55:30;22.10;16.30
1351;DHT22;669;50.206;9.998;2023-06-04T07:57:58;22.10;14.70
1351;DHT22;669;50.206;9.998;2023-06-04T08:00:28;22.20;15.90
1351;DHT22;669;50.206;9.998;2023-06-04T08:02:56;22.30;16.30
1351;DHT22;669;50.206;9.998;2023-06-04T08:05:25;22.20;14.50
1351;DHT22;669;50.206;9.998;2023-06-04T08:07:53;22.10;15.50
1351;DHT22;669;50.206;9.998;2023-06-04T08:10:21;22.40;16.20
1351;DHT22;669;50.206;9.998;2023-06-04T08:12:49;22.90;16.40
1351;DHT22;669;50.206;9.998;2023-06-04T08:15:17;23.30;15.90
1351;DHT22;669;50.206;9.998;2023-06-04T08:17:45;23.10;13.90
1351;DHT22;669;50.206;9.998;2023-06-04T08:20:13;22.70;13.50
1351;DHT22;669;50.206;9.998;2023-06-04T08:22:42;22.60;16.20
1351;DHT22;669;50.206;9.998;2023-06-04T08:25:10;22.80;14.40
1351;DHT22;669;50.206;9.998;2023-06-04T08:27:41;22.90;13.20
1351;DHT22;669;50.206;9.998;2023-06-04T08:30:10;23.10;14.70
1351;DHT22;669;50.206;9.998;2023-06-04T08:32:38;23.30;13.90
1351;DHT22;669;50.206;9.998;2023-06-04T08:35:07;23.30;13.40
1351;DHT22;669;50.206;9.998;2023-06-04T08:37:35;23.20;12.40
1351;DHT22;669;50.206;9.998;2023-06-04T08:40:07;23.20;11.30
1351;DHT22;669;50.206;9.998;2023-06-04T08:42:41;23.10;12.40
1351;DHT22;669;50.206;9.998;2023-06-04T08:45:10;23.10;11.80
1351;DHT22;669;50.206;9.998;2023-06-04T08:47:43;23.40;12.30
1351;DHT22;669;50.206;9.998;2023-06-04T08:50:12;23.70;11.40
1351;DHT22;669;50.206;9.998;2023-06-04T08:52:42;23.60;12.50
1351;DHT22;669;50.206;9.998;2023-06-04T08:55:12;23.90;14.50
1351;DHT22;669;50.206;9.998;2023-06-04T08:57:41;23.80;13.60
1351;DHT22;669;50.206;9.998;2023-06-04T09:00:10;24.00;13.90
1351;DHT22;669;50.206;9.998;2023-06-04T09:02:39;24.10;10.70
1351;DHT22;669;50.206;9.998;2023-06-04T09:05:08;24.40;12.70
1351;DHT22;669;50.206;9.998;2023-06-04T09:07:39;24.60;11.00
1351;DHT22;669;50.206;9.998;2023-06-04T09:10:09;24.30;12.30
1351;DHT22;669;50.206;9.998;2023-06-04T09:12:43;23.80;11.10
1351;DHT22;669;50.206;9.998;2023-06-04T09:15:11;23.80;14.90
1351;DHT22;669;50.206;9.998;2023-06-04T09:17:39;24.10;11.80
1351;DHT22;669;50.206;9.998;2023-06-04T09:20:08;24.20;12.30
1351;DHT22;669;50.206;9.998;2023-06-04T09:22:46;24.30;10.90
1351;DHT22;669;50.206;9.998;2023-06-04T09:25:20;24.10;12.20
1351;DHT22;669;50.206;9.998;2023-06-04T09:27:50;24.40;11.60
1351;DHT22;669;50.206;9.998;2023-06-04T09:30:18;24.80;13.10
1351;DHT22;669;50.206;9.998;2023-06-04T09:32:46;25.10;10.90
1351;DHT22;669;50.206;9.998;2023-06-04T09:35:16;25.50;12.90
1351;DHT22;669;50.206;9.998;2023-06-04T09:37:52;25.90;12.00
1351;DHT22;669;50.206;9.998;2023-06-04T09:40:20;25.50;9.70
1351;DHT22;669;50.206;9.998;2023-06-04T09:42:50;25.40;10.40
1351;DHT22;669;50.206;9.998;2023-06-04T09:45:27;25.20;10.60
1351;DHT22;669;50.206;9.998;2023-06-04T09:47:56;25.30;11.20
1351;DHT22;669;50.206;9.998;2023-06-04T09:50:29;25.30;11.60
1351;DHT22;669;50.206;9.998;2023-06-04T09:52:57;25.10;11.20
1351;DHT22;669;50.206;9.998;2023-06-04T09:55:25;25.40;12.50
1351;DHT22;669;50.206;9.998;2023-06-04T09:57:55;25.70;12.30
1351;DHT22;669;50.206;9.998;2023-06-04T10:00:23;25.70;11.40
1351;DHT22;669;50.206;9.998;2023-06-04T10:02:56;26.00;10.00
1351;DHT22;669;50.206;9.998;2023-06-04T10:05:25;25.90;11.30
1351;DHT22;669;50.206;9.998;2023-06-04T10:07:55;25.80;11.50
1351;DHT22;669;50.206;9.998;2023-06-04T10:10:26;25.80;8.80
1351;DHT22;669;50.206;9.998;2023-06-04T10:13:00;25.80;10.90
1351;DHT22;669;50.206;9.998;2023-06-04T10:15:31;26.20;10.90
1351;DHT22;669;50.206;9.998;2023-06-04T10:18:01;26.30;10.10
1351;DHT22;669;50.206;9.998;2023-06-04T10:20:30;26.80;10.90
1351;DHT22;669;50.206;9.998;2023-06-04T10:22:59;27.00;13.40
1351;DHT22;669;50.206;9.998;2023-06-04T10:25:28;27.00;12.70
1351;DHT22;669;50.206;9.998;2023-06-04T10:27:59;26.50;10.20
1351;DHT22;669;50.206;9.998;2023-06-04T10:30:28;26.20;10.50
1351;DHT22;669;50.206;9.998;2023-06-04T10:32:57;26.30;13.20
1351;DHT22;669;50.206;9.998;2023-06-04T10:35:31;26.30;9.40
1351;DHT22;669;50.206;9.998;2023-06-04T10:38:09;26.20;7.10
1351;DHT22;669;50.206;9.998;2023-06-04T10:40:38;26.20;9.80
1351;DHT22;669;50.206;9.998;2023-06-04T10:43:09;26.50;10.30
1351;DHT22;669;50.206;9.998;2023-06-04T10:45:38;26.70;8.90
1351;DHT22;669;50.206;9.998;2023-06-04T10:48:07;26.90;10.40
1351;DHT22;669;50.206;9.998;2023-06-04T10:50:48;27.00;8.60
1351;DHT22;669;50.206;9.998;2023-06-04T10:53:17;27.00;10.90
1351;DHT22;669;50.206;9.998;2023-06-04T10:55:47;27.30;8.90
1351;DHT22;669;50.206;9.998;2023-06-04T10:58:16;27.60;8.40
1351;DHT22;669;50.206;9.998;2023-06-04T11:00:47;27.40;8.00
1351;DHT22;669;50.206;9.998;2023-06-04T11:03:16;27.50;10.70
1351;DHT22;669;50.206;9.998;2023-06-04T11:05:46;27.40;9.10
1351;DHT22;669;50.206;9.998;2023-06-04T11:08:14;27.40;8.30
1351;DHT22;669;50.206;9.998;2023-06-04T11:10:53;27.70;8.80
1351;DHT22;669;50.206;9.998;2023-06-04T11:13:24;27.80;7.00
1351;DHT22;669;50.206;9.998;2023-06-04T11:15:52;28.00;7.80
1351;DHT22;669;50.206;9.998;2023-06-04T11:18:22;28.20;8.50
1351;DHT22;669;50.206;9.998;2023-06-04T11:20:59;28.20;10.40
1351;DHT22;669;50.206;9.998;2023-06-04T11:23:27;28.00;7.90
1351;DHT22;669;50.206;9.998;2023-06-04T11:25:55;27.90;8.70
1351;DHT22;669;50.206;9.998;2023-06-04T11:28:26;28.10;9.80
1351;DHT22;669;50.206;9.998;2023-06-04T11:30:57;28.20;6.80
1351;DHT22;669;50.206;9.998;2023-06-04T11:33:26;28.30;7.60
1351;DHT22;669;50.206;9.998;2023-06-04T11:35:54;28.40;6.90
1351;DHT22;669;50.206;9.998;2023-06-04T11:38:22;28.20;10.20
1351;DHT22;669;50.206;9.998;2023-06-04T11:40:57;28.30;9.70
1351;DHT22;669;50.206;9.998;2023-06-04T11:43:27;28.20;8.80
1351;DHT22;669;50.206;9.998;2023-06-04T11:45:55;28.20;8.90
1351;DHT22;669;50.206;9.998;2023-06-04T11:48:23;28.10;9.70
1351;DHT22;669;50.206;9.998;2023-06-04T11:50:52;27.70;9.10
1351;DHT22;669;50.206;9.998;2023-06-04T11:53:21;27.20;9.60
1351;DHT22;669;50.206;9.998;2023-06-04T11:55:49;27.10;6.40
1351;DHT22;669;50.206;9.998;2023-06-04T11:58:17;27.20;8.00
1351;DHT22;669;50.206;9.998;2023-06-04T12:00:46;27.20;8.50
1351;DHT22;669;50.206;9.998;2023-06-04T12:03:14;27.40;7.90
1351;DHT22;669;50.206;9.998;2023-06-04T12:05:43;27.80;7.70
1351;DHT22;669;50.206;9.998;2023-06-04T12:08:11;28.20;7.90
1351;DHT22;669;50.206;9.998;2023-06-04T12:10:40;28.40;6.90
1351;DHT22;669;50.206;9.998;2023-06-04T12:13:09;27.90;6.90
1351;DHT22;669;50.206;9.998;2023-06-04T12:15:38;27.10;8.60
1351;DHT22;669;50.206;9.998;2023-06-04T12:18:07;27.30;8.30
1351;DHT22;669;50.206;9.998;2023-06-04T12:20:38;27.40;7.20
1351;DHT22;669;50.206;9.998;2023-06-04T12:23:06;27.40;7.40
1351;DHT22;669;50.206;9.998;2023-06-04T12:25:35;27.60;8.90
1351;DHT22;669;50.206;9.998;2023-06-04T12:28:04;28.20;8.30
1351;DHT22;669;50.206;9.998;2023-06-04T12:30:36;28.70;8.80
1351;DHT22;669;50.206;9.998;2023-06-04T12:33:04;29.20;8.00
1351;DHT22;669;50.206;9.998;2023-06-04T12:35:34;28.60;5.80
1351;DHT22;669;50.206;9.998;2023-06-04T12:38:03;28.40;10.10
1351;DHT22;669;50.206;9.998;2023-06-04T12:40:32;28.60;7.60
1351;DHT22;669;50.206;9.998;2023-06-04T12:43:00;28.90;8.30
1351;DHT22;669;50.206;9.998;2023-06-04T12:45:31;29.30;6.80
1351;DHT22;669;50.206;9.998;2023-06-04T12:47:59;29.60;7.30
1351;DHT22;669;50.206;9.998;2023-06-04T12:50:27;30.00;7.80
1351;DHT22;669;50.206;9.998;2023-06-04T12:52:56;29.20;7.30
1351;DHT22;669;50.206;9.998;2023-06-04T12:55:24;28.50;5.20
1351;DHT22;669;50.206;9.998;2023-06-04T12:57:54;27.90;5.80
1351;DHT22;669;50.206;9.998;2023-06-04T13:00:23;28.20;8.30
1351;DHT22;669;50.206;9.998;2023-06-04T13:02:51;28.00;7.20
1351;DHT22;669;50.206;9.998;2023-06-04T13:05:19;27.70;7.10
1351;DHT22;669;50.206;9.998;2023-06-04T13:07:47;28.10;6.30
1351;DHT22;669;50.206;9.998;2023-06-04T13:10:17;28.80;7.30
1351;DHT22;669;50.206;9.998;2023-06-04T13:12:45;29.40;6.00
1351;DHT22;669;50.206;9.998;2023-06-04T13:15:14;29.80;4.50
1351;DHT22;669;50.206;9.998;2023-06-04T13:17:43;29.90;4.20
1351;DHT22;669;50.206;9.998;2023-06-04T13:20:12;30.00;5.60
1351;DHT22;669;50.206;9.998;2023-06-04T13:22:40;30.00;3.70
1351;DHT22;669;50.206;9.998;2023-06-04T13:25:10;30.40;4.90
1351;DHT22;669;50.206;9.998;2023-06-04T13:27:40;30.40;4.10
1351;DHT22;669;50.206;9.998;2023-06-04T13:30:09;29.70;5.40
1351;DHT22;669;50.206;9.998;2023-06-04T13:32:38;29.10;3.80
1351;DHT22;669;50.206;9.998;2023-06-04T13:35:07;28.80;4.30
1351;DHT22;669;50.206;9.998;2023-06-04T13:37:35;28.80;5.00
1351;DHT22;669;50.206;9.998;2023-06-04T13:40:04;28.80;8.00
1351;DHT22;669;50.206;9.998;2023-06-04T13:42:34;28.80;5.80
1351;DHT22;669;50.206;9.998;2023-06-04T13:45:04;28.90;3.10
1351;DHT22;669;50.206;9.998;2023-06-04T13:47:33;28.80;5.40
1351;DHT22;669;50.206;9.998;2023-06-04T13:50:01;28.60;4.60
1351;DHT22;669;50.206;9.998;2023-06-04T13:52:30;28.00;4.30
1351;DHT22;669;50.206;9.998;2023-06-04T13:54:59;28.20;5.10
1351;DHT22;669;50.206;9.998;2023-06-04T13:57:27;28.10;5.70
1351;DHT22;669;50.206;9.998;2023-06-04T13:59:56;27.90;4.20
1351;DHT22;669;50.206;9.998;2023-06-04T14:02:26;27.70;5.30
1351;DHT22;669;50.206;9.998;2023-06-04T14:04:56;27.40;4.70
1351;DHT22;669;50.206;9.998;2023-06-04T14:07:24;27.60;4.10
1351;DHT22;669;50.206;9.998;2023-06-04T14:09:53;27.70;4.60
1351;DHT22;669;50.206;9.998;2023-06-04T14:12:22;27.20;6.00
1351;DHT22;669;50.206;9.998;2023-06-04T14:14:50;26.80;3.90
1351;DHT22;669;50.206;9.998;2023-06-04T14:17:18;26.30;4.50
1351;DHT22;669;50.206;9.998;2023-06-04T14:19:48;26.20;5.60
1351;DHT22;669;50.206;9.998;2023-06-04T14:22:17;26.30;4.60
1351;DHT22;669;50.206;9.998;2023-06-04T14:24:45;26.30;4.20
1351;DHT22;669;50.206;9.998;2023-06-04T14:27:13;26.20;4.90
1351;DHT22;669;50.206;9.998;2023-06-04T14:29:41;26.00;4.00
1351;DHT22;669;50.206;9.998;2023-06-04T14:32:09;25.90;5.90
1351;DHT22;669;50.206;9.998;2023-06-04T14:34:37;25.70;4.60
1351;DHT22;669;50.206;9.998;2023-06-04T14:37:06;25.60;6.60
1351;DHT22;669;50.206;9.998;2023-06-04T14:39:34;25.10;4.40
1351;DHT22;669;50.206;9.998;2023-06-04T14:42:03;24.70;5.70
1351;DHT22;669;50.206;9.998;2023-06-04T14:44:31;24.50;5.20
1351;DHT22;669;50.206;9.998;2023-06-04T14:46:59;24.40;7.10
1351;DHT22;669;50.206;9.998;2023-06-04T14:49:27;24.40;7.80
1351;DHT22;669;50.206;9.998;2023-06-04T14:51:55;24.40;9.10
1351;DHT22;669;50.206;9.998;2023-06-04T14:54:24;24.40;7.10
1351;DHT22;669;50.206;9.998;2023-06-04T14:56:52;24.40;7.10
1351;DHT22;669;50.206;9.998;2023-06-04T14:59:20;24.40;6.80
1351;DHT22;669;50.206;9.998;2023-06-04T15:01:48;24.40;7.80
1351;DHT22;669;50.206;9.998;2023-06-04T15:04:16;24.30;7.30
1351;DHT22;669;50.206;9.998;2023-06-04T15:06:44;24.30;9.00
1351;DHT22;669;50.206;9.998;2023-06-04T15:09:13;24.30;8.30
1351;DHT22;669;50.206;9.998;2023-06-04T15:11:43;24.10;8.90
1351;DHT22;669;50.206;9.998;2023-06-04T15:14:11;24.10;7.50
1351;DHT22;669;50.206;9.998;2023-06-04T15:16:39;23.90;6.60
1351;DHT22;669;50.206;9.998;2023-06-04T15:19:08;23.90;6.50
1351;DHT22;669;50.206;9.998;2023-06-04T15:21:36;23.80;6.80
1351;DHT22;669;50.206;9.998;2023-06-04T15:24:04;23.70;7.60
1351;DHT22;669;50.206;9.998;2023-06-04T15:26:32;23.60;7.10
1351;DHT22;669;50.206;9.998;2023-06-04T15:29:02;23.60;7.60
1351;DHT22;669;50.206;9.998;2023-06-04T15:31:29;23.60;9.20
1351;DHT22;669;50.206;9.998;2023-06-04T15:33:58;23.50;8.20
1351;DHT22;669;50.206;9.998;2023-06-04T15:36:25;23.50;8.40
1351;DHT22;669;50.206;9.998;2023-06-04T15:38:53;23.50;8.30
1351;DHT22;669;50.206;9.998;2023-06-04T15:41:21;23.40;9.20
1351;DHT22;669;50.206;9.998;2023-06-04T15:43:51;23.30;7.10
1351;DHT22;669;50.206;9.998;2023-06-04T15:46:22;23.30;8.30
1351;DHT22;669;50.206;9.998;2023-06-04T15:48:51;23.20;8.30
1351;DHT22;669;50.206;9.998;2023-06-04T15:51:19;23.20;8.10
1351;DHT22;669;50.206;9.998;2023-06-04T15:53:47;23.20;9.50
1351;DHT22;669;50.206;9.998;2023-06-04T15:56:15;23.10;7.60
1351;DHT22;669;50.206;9.998;2023-06-04T15:58:44;23.10;8.10
1351;DHT22;669;50.206;9.998;2023-06-04T16:01:12;23.10;8.20
1351;DHT22;669;50.206;9.998;2023-06-04T16:03:42;23.00;8.20
1351;DHT22;669;50.206;9.998;2023-06-04T16:06:10;22.90;7.00
1351;DHT22;669;50.206;9.998;2023-06-04T16:08:38;22.90;7.50
1351;DHT22;669;50.206;9.998;2023-06-04T16:11:07;22.80;7.40
1351;DHT22;669;50.206;9.998;2023-06-04T16:13:36;22.80;8.00
1351;DHT22;669;50.206;9.998;2023-06-04T16:16:04;22.80;7.30
1351;DHT22;669;50.206;9.998;2023-06-04T16:18:33;22.70;7.90
1351;DHT22;669;50.206;9.998;2023-06-04T16:21:02;22.60;7.90
1351;DHT22;669;50.206;9.998;2023-06-04T16:23:31;22.50;7.00
1351;DHT22;669;50.206;9.998;2023-06-04T16:25:59;22.50;8.40
1351;DHT22;669;50.206;9.998;2023-06-04T16:28:28;22.50;7.80
1351;DHT22;669;50.206;9.998;2023-06-04T16:30:56;22.50;7.80
1351;DHT22;669;50.206;9.998;2023-06-04T16:33:24;22.40;8.20
1351;DHT22;669;50.206;9.998;2023-06-04T16:35:52;22.40;8.60
1351;DHT22;669;50.206;9.998;2023-06-04T16:38:22;22.40;10.10